Terminal Aerodrome Forecast
Issued by NWS Corpus Christi, TX

Home | Current Version | Previous Version | Text Only | Print | Product List | Glossary On
Versions: 1 2 3 4 5 6 7 8 9 10 11 12 13 14 15 16 17
000
FTUS44 KCRP 172300
TAFVCT
TAF
KVCT 172325Z 1800/1824 16008KT P6SM VCTS SCT035CB OVC100
      TEMPO 1800/1803 VRB10KT TSRA BKN035CB
     FM180300 15005KT P6SM FEW015 BKN150
     FM180700 14005KT P6SM SCT015 BKN150
      TEMPO 1811/1815 P6SM BKN012
     FM181500 15008KT P6SM VCTS SCT025CB=

USA.gov is the U.S. government's official web portal to all federal, state and local government web resources and services.